sensor_id;sensor_type;location;lat;lon;timestamp;P1;durP1;ratioP1;P2;durP2;ratioP2
12367;SDS011;6248;49.812;6.620;2024-01-06T00:00:25;3.93;;;2.00;;
12367;SDS011;6248;49.812;6.620;2024-01-06T00:02:52;3.40;;;2.33;;
12367;SDS011;6248;49.812;6.620;2024-01-06T00:05:20;2.80;;;2.00;;
12367;SDS011;6248;49.812;6.620;2024-01-06T00:07:47;5.27;;;2.43;;
12367;SDS011;6248;49.812;6.620;2024-01-06T00:10:15;2.80;;;1.90;;
12367;SDS011;6248;49.812;6.620;2024-01-06T00:12:42;6.23;;;2.33;;
12367;SDS011;6248;49.812;6.620;2024-01-06T00:15:09;5.23;;;2.30;;
12367;SDS011;6248;49.812;6.620;2024-01-06T00:17:36;6.40;;;2.47;;
12367;SDS011;6248;49.812;6.620;2024-01-06T00:20:04;8.80;;;3.07;;
12367;SDS011;6248;49.812;6.620;2024-01-06T00:22:33;4.33;;;2.33;;
12367;SDS011;6248;49.812;6.620;2024-01-06T00:25:00;4.37;;;2.10;;
12367;SDS011;6248;49.812;6.620;2024-01-06T00:27:27;6.17;;;2.50;;
12367;SDS011;6248;49.812;6.620;2024-01-06T00:29:54;4.33;;;2.60;;
12367;SDS011;6248;49.812;6.620;2024-01-06T00:32:21;4.27;;;2.40;;
12367;SDS011;6248;49.812;6.620;2024-01-06T00:34:48;8.57;;;2.83;;
12367;SDS011;6248;49.812;6.620;2024-01-06T00:37:16;8.10;;;2.63;;
12367;SDS011;6248;49.812;6.620;2024-01-06T00:39:44;4.77;;;2.50;;
12367;SDS011;6248;49.812;6.620;2024-01-06T00:42:11;4.93;;;2.70;;
12367;SDS011;6248;49.812;6.620;2024-01-06T00:44:38;6.73;;;2.77;;
12367;SDS011;6248;49.812;6.620;2024-01-06T00:47:05;9.03;;;2.60;;
12367;SDS011;6248;49.812;6.620;2024-01-06T00:49:32;5.63;;;2.90;;
12367;SDS011;6248;49.812;6.620;2024-01-06T00:51:59;4.60;;;2.40;;
12367;SDS011;6248;49.812;6.620;2024-01-06T00:54:27;6.13;;;2.90;;
12367;SDS011;6248;49.812;6.620;2024-01-06T00:56:55;6.57;;;3.00;;
12367;SDS011;6248;49.812;6.620;2024-01-06T00:59:22;6.87;;;3.07;;
12367;SDS011;6248;49.812;6.620;2024-01-06T01:01:50;4.10;;;2.47;;
12367;SDS011;6248;49.812;6.620;2024-01-06T01:04:17;6.30;;;2.93;;
12367;SDS011;6248;49.812;6.620;2024-01-06T01:06:44;6.07;;;3.00;;
12367;SDS011;6248;49.812;6.620;2024-01-06T01:09:11;7.17;;;3.10;;
12367;SDS011;6248;49.812;6.620;2024-01-06T01:11:39;7.90;;;3.20;;
12367;SDS011;6248;49.812;6.620;2024-01-06T01:14:08;5.70;;;3.07;;
12367;SDS011;6248;49.812;6.620;2024-01-06T01:16:35;4.33;;;2.70;;
12367;SDS011;6248;49.812;6.620;2024-01-06T01:19:02;6.43;;;2.70;;
12367;SDS011;6248;49.812;6.620;2024-01-06T01:21:29;6.30;;;3.07;;
12367;SDS011;6248;49.812;6.620;2024-01-06T01:23:56;5.47;;;2.77;;
12367;SDS011;6248;49.812;6.620;2024-01-06T01:26:23;3.33;;;2.90;;
12367;SDS011;6248;49.812;6.620;2024-01-06T01:28:50;8.23;;;3.23;;
12367;SDS011;6248;49.812;6.620;2024-01-06T01:31:19;3.90;;;2.30;;
12367;SDS011;6248;49.812;6.620;2024-01-06T01:33:46;3.23;;;2.47;;
12367;SDS011;6248;49.812;6.620;2024-01-06T01:36:13;5.80;;;3.20;;
12367;SDS011;6248;49.812;6.620;2024-01-06T01:38:40;4.37;;;2.70;;
12367;SDS011;6248;49.812;6.620;2024-01-06T01:41:07;4.37;;;3.30;;
12367;SDS011;6248;49.812;6.620;2024-01-06T01:43:34;4.90;;;3.67;;
12367;SDS011;6248;49.812;6.620;2024-01-06T01:46:03;5.33;;;2.83;;
12367;SDS011;6248;49.812;6.620;2024-01-06T01:48:31;4.90;;;3.30;;
12367;SDS011;6248;49.812;6.620;2024-01-06T01:50:59;4.07;;;3.27;;
12367;SDS011;6248;49.812;6.620;2024-01-06T01:53:26;5.47;;;3.10;;
12367;SDS011;6248;49.812;6.620;2024-01-06T01:55:53;4.13;;;3.43;;
12367;SDS011;6248;49.812;6.620;2024-01-06T01:58:21;6.57;;;3.43;;
12367;SDS011;6248;49.812;6.620;2024-01-06T02:00:48;5.67;;;3.80;;
12367;SDS011;6248;49.812;6.620;2024-01-06T02:03:16;4.00;;;3.50;;
12367;SDS011;6248;49.812;6.620;2024-01-06T02:05:44;5.00;;;3.60;;
12367;SDS011;6248;49.812;6.620;2024-01-06T02:08:11;4.40;;;3.17;;
12367;SDS011;6248;49.812;6.620;2024-01-06T02:10:39;4.17;;;3.10;;
12367;SDS011;6248;49.812;6.620;2024-01-06T02:13:09;7.47;;;3.70;;
12367;SDS011;6248;49.812;6.620;2024-01-06T02:15:36;3.97;;;3.57;;
12367;SDS011;6248;49.812;6.620;2024-01-06T02:18:04;5.70;;;3.57;;
12367;SDS011;6248;49.812;6.620;2024-01-06T02:20:31;5.13;;;3.50;;
12367;SDS011;6248;49.812;6.620;2024-01-06T02:23:00;4.83;;;3.23;;
12367;SDS011;6248;49.812;6.620;2024-01-06T02:25:27;5.47;;;3.33;;
12367;SDS011;6248;49.812;6.620;2024-01-06T02:27:54;6.13;;;3.87;;
12367;SDS011;6248;49.812;6.620;2024-01-06T02:30:21;4.63;;;3.77;;
12367;SDS011;6248;49.812;6.620;2024-01-06T02:32:48;3.80;;;3.40;;
12367;SDS011;6248;49.812;6.620;2024-01-06T02:35:15;4.77;;;3.13;;
12367;SDS011;6248;49.812;6.620;2024-01-06T02:37:42;4.10;;;3.40;;
12367;SDS011;6248;49.812;6.620;2024-01-06T02:40:12;5.50;;;3.60;;
12367;SDS011;6248;49.812;6.620;2024-01-06T02:42:39;4.23;;;3.63;;
12367;SDS011;6248;49.812;6.620;2024-01-06T02:45:06;5.40;;;3.70;;
12367;SDS011;6248;49.812;6.620;2024-01-06T02:47:33;6.40;;;3.87;;
12367;SDS011;6248;49.812;6.620;2024-01-06T02:50:00;5.63;;;4.23;;
12367;SDS011;6248;49.812;6.620;2024-01-06T02:52:28;6.33;;;3.90;;
12367;SDS011;6248;49.812;6.620;2024-01-06T02:54:55;5.60;;;3.90;;
12367;SDS011;6248;49.812;6.620;2024-01-06T02:57:23;4.37;;;3.60;;
12367;SDS011;6248;49.812;6.620;2024-01-06T02:59:50;6.50;;;3.67;;
12367;SDS011;6248;49.812;6.620;2024-01-06T03:02:17;5.53;;;3.80;;
12367;SDS011;6248;49.812;6.620;2024-01-06T03:04:45;4.43;;;3.63;;
12367;SDS011;6248;49.812;6.620;2024-01-06T03:07:12;6.33;;;4.00;;
12367;SDS011;6248;49.812;6.620;2024-01-06T03:09:39;5.27;;;3.80;;
12367;SDS011;6248;49.812;6.620;2024-01-06T03:12:06;5.87;;;3.97;;
12367;SDS011;6248;49.812;6.620;2024-01-06T03:14:35;6.40;;;3.73;;
12367;SDS011;6248;49.812;6.620;2024-01-06T03:17:02;5.83;;;3.60;;
12367;SDS011;6248;49.812;6.620;2024-01-06T03:19:29;3.87;;;3.23;;
12367;SDS011;6248;49.812;6.620;2024-01-06T03:21:57;4.67;;;3.70;;
12367;SDS011;6248;49.812;6.620;2024-01-06T03:24:24;5.20;;;3.67;;
12367;SDS011;6248;49.812;6.620;2024-01-06T03:26:51;3.43;;;3.10;;
12367;SDS011;6248;49.812;6.620;2024-01-06T03:29:18;4.77;;;3.40;;
12367;SDS011;6248;49.812;6.620;2024-01-06T03:31:47;3.47;;;3.17;;
12367;SDS011;6248;49.812;6.620;2024-01-06T03:34:14;4.67;;;3.53;;
12367;SDS011;6248;49.812;6.620;2024-01-06T03:36:41;5.73;;;3.27;;
12367;SDS011;6248;49.812;6.620;2024-01-06T03:39:08;3.73;;;3.30;;
12367;SDS011;6248;49.812;6.620;2024-01-06T03:41:37;4.73;;;3.30;;
12367;SDS011;6248;49.812;6.620;2024-01-06T03:44:04;3.93;;;3.50;;
12367;SDS011;6248;49.812;6.620;2024-01-06T03:46:32;3.63;;;3.33;;
12367;SDS011;6248;49.812;6.620;2024-01-06T03:49:00;5.03;;;3.37;;
12367;SDS011;6248;49.812;6.620;2024-01-06T03:51:27;7.07;;;3.57;;
12367;SDS011;6248;49.812;6.620;2024-01-06T03:53:54;4.30;;;3.20;;
12367;SDS011;6248;49.812;6.620;2024-01-06T03:56:22;4.70;;;3.20;;
12367;SDS011;6248;49.812;6.620;2024-01-06T03:58:49;3.73;;;3.43;;
12367;SDS011;6248;49.812;6.620;2024-01-06T04:01:16;6.20;;;3.50;;
12367;SDS011;6248;49.812;6.620;2024-01-06T04:03:43;4.23;;;2.90;;
12367;SDS011;6248;49.812;6.620;2024-01-06T04:06:11;3.70;;;3.17;;
12367;SDS011;6248;49.812;6.620;2024-01-06T04:08:39;4.67;;;3.67;;
12367;SDS011;6248;49.812;6.620;2024-01-06T04:11:06;5.83;;;3.47;;
12367;SDS011;6248;49.812;6.620;2024-01-06T04:13:33;3.60;;;3.30;;
12367;SDS011;6248;49.812;6.620;2024-01-06T04:16:00;5.10;;;3.30;;
12367;SDS011;6248;49.812;6.620;2024-01-06T04:18:28;4.40;;;3.20;;
12367;SDS011;6248;49.812;6.620;2024-01-06T04:20:55;3.70;;;3.17;;
12367;SDS011;6248;49.812;6.620;2024-01-06T04:23:23;3.60;;;2.70;;
12367;SDS011;6248;49.812;6.620;2024-01-06T04:25:51;3.37;;;2.87;;
12367;SDS011;6248;49.812;6.620;2024-01-06T04:28:18;3.17;;;2.87;;
12367;SDS011;6248;49.812;6.620;2024-01-06T04:30:45;3.10;;;2.50;;
12367;SDS011;6248;49.812;6.620;2024-01-06T04:33:12;2.63;;;2.40;;
12367;SDS011;6248;49.812;6.620;2024-01-06T04:35:40;2.97;;;2.47;;
12367;SDS011;6248;49.812;6.620;2024-01-06T04:38:07;4.10;;;2.60;;
12367;SDS011;6248;49.812;6.620;2024-01-06T04:40:35;3.70;;;2.67;;
12367;SDS011;6248;49.812;6.620;2024-01-06T04:43:02;4.63;;;2.50;;
12367;SDS011;6248;49.812;6.620;2024-01-06T04:45:30;3.17;;;2.77;;
12367;SDS011;6248;49.812;6.620;2024-01-06T04:47:57;2.93;;;2.57;;
12367;SDS011;6248;49.812;6.620;2024-01-06T04:50:24;2.67;;;2.47;;
12367;SDS011;6248;49.812;6.620;2024-01-06T04:52:51;2.50;;;2.30;;
12367;SDS011;6248;49.812;6.620;2024-01-06T04:55:18;2.70;;;2.30;;
12367;SDS011;6248;49.812;6.620;2024-01-06T04:57:47;3.20;;;2.90;;
12367;SDS011;6248;49.812;6.620;2024-01-06T05:00:14;3.73;;;2.70;;
12367;SDS011;6248;49.812;6.620;2024-01-06T05:02:42;2.87;;;2.67;;
12367;SDS011;6248;49.812;6.620;2024-01-06T05:05:09;5.23;;;2.50;;
12367;SDS011;6248;49.812;6.620;2024-01-06T05:07:36;3.60;;;2.37;;
12367;SDS011;6248;49.812;6.620;2024-01-06T05:10:03;2.57;;;2.37;;
12367;SDS011;6248;49.812;6.620;2024-01-06T05:12:31;2.60;;;2.40;;
12367;SDS011;6248;49.812;6.620;2024-01-06T05:14:59;2.73;;;2.40;;
12367;SDS011;6248;49.812;6.620;2024-01-06T05:17:26;2.87;;;2.53;;
12367;SDS011;6248;49.812;6.620;2024-01-06T05:19:53;3.67;;;2.37;;
12367;SDS011;6248;49.812;6.620;2024-01-06T05:22:20;2.60;;;2.40;;
12367;SDS011;6248;49.812;6.620;2024-01-06T05:24:47;2.60;;;2.40;;
12367;SDS011;6248;49.812;6.620;2024-01-06T05:27:18;2.40;;;2.20;;
12367;SDS011;6248;49.812;6.620;2024-01-06T05:29:45;2.43;;;1.93;;
12367;SDS011;6248;49.812;6.620;2024-01-06T05:32:15;2.20;;;2.00;;
12367;SDS011;6248;49.812;6.620;2024-01-06T05:34:42;2.00;;;1.90;;
12367;SDS011;6248;49.812;6.620;2024-01-06T05:37:10;2.40;;;2.20;;
12367;SDS011;6248;49.812;6.620;2024-01-06T05:39:37;2.30;;;2.10;;
12367;SDS011;6248;49.812;6.620;2024-01-06T05:42:04;2.47;;;2.27;;
12367;SDS011;6248;49.812;6.620;2024-01-06T05:44:34;2.77;;;2.33;;
12367;SDS011;6248;49.812;6.620;2024-01-06T05:47:02;3.17;;;2.23;;
12367;SDS011;6248;49.812;6.620;2024-01-06T05:49:30;2.47;;;2.27;;
12367;SDS011;6248;49.812;6.620;2024-01-06T05:51:57;2.60;;;2.40;;
12367;SDS011;6248;49.812;6.620;2024-01-06T05:54:24;2.60;;;2.40;;
12367;SDS011;6248;49.812;6.620;2024-01-06T05:56:51;2.80;;;2.23;;
12367;SDS011;6248;49.812;6.620;2024-01-06T05:59:19;2.77;;;2.57;;
12367;SDS011;6248;49.812;6.620;2024-01-06T06:01:46;2.60;;;2.40;;
12367;SDS011;6248;49.812;6.620;2024-01-06T06:04:13;2.70;;;2.17;;
12367;SDS011;6248;49.812;6.620;2024-01-06T06:06:41;2.37;;;2.17;;
12367;SDS011;6248;49.812;6.620;2024-01-06T06:09:08;2.50;;;2.30;;
12367;SDS011;6248;49.812;6.620;2024-01-06T06:11:35;2.80;;;2.60;;
12367;SDS011;6248;49.812;6.620;2024-01-06T06:14:03;3.10;;;2.67;;
12367;SDS011;6248;49.812;6.620;2024-01-06T06:16:30;3.00;;;2.70;;
12367;SDS011;6248;49.812;6.620;2024-01-06T06:18:57;3.10;;;2.90;;
12367;SDS011;6248;49.812;6.620;2024-01-06T06:21:24;2.57;;;2.37;;
12367;SDS011;6248;49.812;6.620;2024-01-06T06:23:52;2.20;;;2.00;;
12367;SDS011;6248;49.812;6.620;2024-01-06T06:26:19;2.80;;;2.43;;
12367;SDS011;6248;49.812;6.620;2024-01-06T06:28:46;3.20;;;2.57;;
12367;SDS011;6248;49.812;6.620;2024-01-06T06:31:14;3.57;;;2.30;;
12367;SDS011;6248;49.812;6.620;2024-01-06T06:33:41;3.07;;;2.47;;
12367;SDS011;6248;49.812;6.620;2024-01-06T06:36:08;2.83;;;2.40;;
12367;SDS011;6248;49.812;6.620;2024-01-06T06:38:35;2.40;;;2.20;;
12367;SDS011;6248;49.812;6.620;2024-01-06T06:41:04;2.40;;;2.20;;
12367;SDS011;6248;49.812;6.620;2024-01-06T06:43:32;2.57;;;2.37;;
12367;SDS011;6248;49.812;6.620;2024-01-06T06:45:59;2.60;;;2.40;;
12367;SDS011;6248;49.812;6.620;2024-01-06T06:48:26;3.30;;;2.70;;
12367;SDS011;6248;49.812;6.620;2024-01-06T06:50:53;3.37;;;2.57;;
12367;SDS011;6248;49.812;6.620;2024-01-06T06:53:20;2.70;;;2.50;;
12367;SDS011;6248;49.812;6.620;2024-01-06T06:55:47;3.43;;;2.70;;
12367;SDS011;6248;49.812;6.620;2024-01-06T06:58:16;3.20;;;2.37;;
12367;SDS011;6248;49.812;6.620;2024-01-06T07:00:43;2.60;;;2.40;;
12367;SDS011;6248;49.812;6.620;2024-01-06T07:03:10;2.80;;;2.60;;
12367;SDS011;6248;49.812;6.620;2024-01-06T07:05:39;3.17;;;2.33;;
12367;SDS011;6248;49.812;6.620;2024-01-06T07:08:06;4.20;;;2.87;;
12367;SDS011;6248;49.812;6.620;2024-01-06T07:10:33;4.07;;;3.10;;
12367;SDS011;6248;49.812;6.620;2024-01-06T07:13:00;3.50;;;3.20;;
12367;SDS011;6248;49.812;6.620;2024-01-06T07:15:29;5.30;;;4.40;;
12367;SDS011;6248;49.812;6.620;2024-01-06T07:17:56;3.40;;;3.10;;
12367;SDS011;6248;49.812;6.620;2024-01-06T07:20:23;2.77;;;2.57;;
12367;SDS011;6248;49.812;6.620;2024-01-06T07:22:50;2.43;;;2.23;;
12367;SDS011;6248;49.812;6.620;2024-01-06T07:25:17;2.90;;;2.40;;
12367;SDS011;6248;49.812;6.620;2024-01-06T07:27:44;2.73;;;2.53;;
12367;SDS011;6248;49.812;6.620;2024-01-06T07:30:11;2.70;;;2.50;;
12367;SDS011;6248;49.812;6.620;2024-01-06T07:32:40;2.83;;;2.57;;
12367;SDS011;6248;49.812;6.620;2024-01-06T07:35:07;2.93;;;2.63;;
12367;SDS011;6248;49.812;6.620;2024-01-06T07:37:35;2.90;;;2.70;;
12367;SDS011;6248;49.812;6.620;2024-01-06T07:40:02;2.60;;;2.40;;
12367;SDS011;6248;49.812;6.620;2024-01-06T07:42:29;2.50;;;2.30;;
12367;SDS011;6248;49.812;6.620;2024-01-06T07:44:56;3.13;;;2.07;;
12367;SDS011;6248;49.812;6.620;2024-01-06T07:47:23;2.87;;;2.53;;
12367;SDS011;6248;49.812;6.620;2024-01-06T07:49:52;2.10;;;2.00;;
12367;SDS011;6248;49.812;6.620;2024-01-06T07:52:19;2.37;;;2.03;;
12367;SDS011;6248;49.812;6.620;2024-01-06T07:54:46;2.87;;;2.40;;
12367;SDS011;6248;49.812;6.620;2024-01-06T07:57:14;2.40;;;2.20;;
12367;SDS011;6248;49.812;6.620;2024-01-06T07:59:41;3.50;;;3.20;;
12367;SDS011;6248;49.812;6.620;2024-01-06T08:02:08;3.53;;;2.70;;
12367;SDS011;6248;49.812;6.620;2024-01-06T08:04:35;2.77;;;2.57;;
12367;SDS011;6248;49.812;6.620;2024-01-06T08:07:04;2.27;;;2.07;;
12367;SDS011;6248;49.812;6.620;2024-01-06T08:09:31;2.83;;;2.30;;
12367;SDS011;6248;49.812;6.620;2024-01-06T08:11:59;2.40;;;2.20;;
12367;SDS011;6248;49.812;6.620;2024-01-06T08:14:26;2.23;;;2.13;;
12367;SDS011;6248;49.812;6.620;2024-01-06T08:16:53;1.90;;;1.80;;
12367;SDS011;6248;49.812;6.620;2024-01-06T08:19:20;2.30;;;2.10;;
12367;SDS011;6248;49.812;6.620;2024-01-06T08:21:48;1.90;;;1.80;;
12367;SDS011;6248;49.812;6.620;2024-01-06T08:24:16;2.00;;;1.90;;
12367;SDS011;6248;49.812;6.620;2024-01-06T08:26:43;1.70;;;1.60;;
12367;SDS011;6248;49.812;6.620;2024-01-06T08:29:11;1.70;;;1.60;;
12367;SDS011;6248;49.812;6.620;2024-01-06T08:31:39;2.10;;;1.90;;
12367;SDS011;6248;49.812;6.620;2024-01-06T08:34:06;1.80;;;1.70;;
12367;SDS011;6248;49.812;6.620;2024-01-06T08:36:33;1.80;;;1.70;;
12367;SDS011;6248;49.812;6.620;2024-01-06T08:39:01;1.80;;;1.70;;
12367;SDS011;6248;49.812;6.620;2024-01-06T08:41:29;1.70;;;1.60;;
12367;SDS011;6248;49.812;6.620;2024-01-06T08:43:56;1.80;;;1.70;;
12367;SDS011;6248;49.812;6.620;2024-01-06T08:46:23;1.73;;;1.63;;
12367;SDS011;6248;49.812;6.620;2024-01-06T08:48:50;2.87;;;1.70;;
12367;SDS011;6248;49.812;6.620;2024-01-06T08:51:17;2.13;;;1.70;;
12367;SDS011;6248;49.812;6.620;2024-01-06T08:53:45;1.50;;;1.40;;
12367;SDS011;6248;49.812;6.620;2024-01-06T08:56:12;3.83;;;2.90;;
12367;SDS011;6248;49.812;6.620;2024-01-06T08:58:42;1.97;;;1.83;;
12367;SDS011;6248;49.812;6.620;2024-01-06T09:01:09;4.27;;;3.87;;
12367;SDS011;6248;49.812;6.620;2024-01-06T09:03:38;2.70;;;2.50;;
12367;SDS011;6248;49.812;6.620;2024-01-06T09:06:05;2.57;;;2.37;;
12367;SDS011;6248;49.812;6.620;2024-01-06T09:08:32;1.50;;;1.40;;
12367;SDS011;6248;49.812;6.620;2024-01-06T09:11:00;1.70;;;1.60;;
12367;SDS011;6248;49.812;6.620;2024-01-06T09:13:27;8.83;;;5.97;;
12367;SDS011;6248;49.812;6.620;2024-01-06T09:15:55;3.60;;;2.70;;
12367;SDS011;6248;49.812;6.620;2024-01-06T09:18:22;2.10;;;1.93;;
12367;SDS011;6248;49.812;6.620;2024-01-06T09:20:49;1.40;;;1.40;;
12367;SDS011;6248;49.812;6.620;2024-01-06T09:23:16;1.63;;;1.53;;
12367;SDS011;6248;49.812;6.620;2024-01-06T09:25:43;1.67;;;1.40;;
12367;SDS011;6248;49.812;6.620;2024-01-06T09:28:11;1.53;;;1.43;;
12367;SDS011;6248;49.812;6.620;2024-01-06T09:30:38;1.23;;;1.23;;
12367;SDS011;6248;49.812;6.620;2024-01-06T09:33:06;2.00;;;1.33;;
12367;SDS011;6248;49.812;6.620;2024-01-06T09:35:34;1.23;;;1.13;;
12367;SDS011;6248;49.812;6.620;2024-01-06T09:38:01;1.30;;;1.30;;
12367;SDS011;6248;49.812;6.620;2024-01-06T09:40:28;1.57;;;1.47;;
12367;SDS011;6248;49.812;6.620;2024-01-06T09:42:58;1.47;;;1.37;;
12367;SDS011;6248;49.812;6.620;2024-01-06T09:45:25;1.40;;;1.30;;
12367;SDS011;6248;49.812;6.620;2024-01-06T09:47:52;1.40;;;1.30;;
12367;SDS011;6248;49.812;6.620;2024-01-06T09:50:22;1.50;;;1.40;;
12367;SDS011;6248;49.812;6.620;2024-01-06T09:52:49;1.20;;;1.20;;
12367;SDS011;6248;49.812;6.620;2024-01-06T09:55:21;1.13;;;1.13;;
12367;SDS011;6248;49.812;6.620;2024-01-06T09:57:50;1.50;;;1.40;;
12367;SDS011;6248;49.812;6.620;2024-01-06T10:00:17;1.30;;;1.20;;
12367;SDS011;6248;49.812;6.620;2024-01-06T10:02:45;1.67;;;1.57;;
12367;SDS011;6248;49.812;6.620;2024-01-06T10:05:13;1.80;;;1.70;;
12367;SDS011;6248;49.812;6.620;2024-01-06T10:07:42;1.60;;;1.50;;
12367;SDS011;6248;49.812;6.620;2024-01-06T10:10:09;1.77;;;1.50;;
12367;SDS011;6248;49.812;6.620;2024-01-06T10:12:37;1.20;;;1.20;;
12367;SDS011;6248;49.812;6.620;2024-01-06T10:15:05;1.40;;;1.30;;
12367;SDS011;6248;49.812;6.620;2024-01-06T10:17:32;1.40;;;1.30;;
12367;SDS011;6248;49.812;6.620;2024-01-06T10:19:59;1.27;;;1.20;;
12367;SDS011;6248;49.812;6.620;2024-01-06T10:22:26;1.23;;;1.17;;
12367;SDS011;6248;49.812;6.620;2024-01-06T10:24:55;1.50;;;1.40;;
12367;SDS011;6248;49.812;6.620;2024-01-06T10:27:22;1.37;;;1.23;;
12367;SDS011;6248;49.812;6.620;2024-01-06T10:29:50;1.50;;;1.40;;
12367;SDS011;6248;49.812;6.620;2024-01-06T10:32:17;1.37;;;1.30;;
12367;SDS011;6248;49.812;6.620;2024-01-06T10:34:44;1.80;;;1.70;;
12367;SDS011;6248;49.812;6.620;2024-01-06T10:37:11;1.50;;;1.40;;
12367;SDS011;6248;49.812;6.620;2024-01-06T10:39:38;1.20;;;1.20;;
12367;SDS011;6248;49.812;6.620;2024-01-06T10:42:07;1.70;;;1.60;;
12367;SDS011;6248;49.812;6.620;2024-01-06T10:44:35;1.83;;;1.73;;
12367;SDS011;6248;49.812;6.620;2024-01-06T10:47:03;3.07;;;2.17;;
12367;SDS011;6248;49.812;6.620;2024-01-06T10:49:31;1.87;;;1.77;;
12367;SDS011;6248;49.812;6.620;2024-01-06T10:51:59;2.13;;;1.70;;
12367;SDS011;6248;49.812;6.620;2024-01-06T10:54:26;1.97;;;1.87;;
12367;SDS011;6248;49.812;6.620;2024-01-06T10:56:54;1.63;;;1.53;;
12367;SDS011;6248;49.812;6.620;2024-01-06T10:59:23;1.80;;;1.70;;
12367;SDS011;6248;49.812;6.620;2024-01-06T11:01:53;1.80;;;1.60;;
12367;SDS011;6248;49.812;6.620;2024-01-06T11:04:21;2.20;;;2.00;;
12367;SDS011;6248;49.812;6.620;2024-01-06T11:06:49;2.07;;;1.87;;
12367;SDS011;6248;49.812;6.620;2024-01-06T11:09:19;2.00;;;1.90;;
12367;SDS011;6248;49.812;6.620;2024-01-06T11:11:46;1.90;;;1.80;;
12367;SDS011;6248;49.812;6.620;2024-01-06T11:14:17;2.30;;;2.10;;
12367;SDS011;6248;49.812;6.620;2024-01-06T11:16:46;2.90;;;2.20;;
12367;SDS011;6248;49.812;6.620;2024-01-06T11:22:04;2.60;;;2.40;;
12367;SDS011;6248;49.812;6.620;2024-01-06T11:24:46;3.80;;;3.50;;
12367;SDS011;6248;49.812;6.620;2024-01-06T11:27:17;3.20;;;3.00;;
12367;SDS011;6248;49.812;6.620;2024-01-06T11:29:44;3.97;;;3.57;;
12367;SDS011;6248;49.812;6.620;2024-01-06T11:32:19;5.70;;;4.90;;
12367;SDS011;6248;49.812;6.620;2024-01-06T11:34:47;6.20;;;5.60;;
12367;SDS011;6248;49.812;6.620;2024-01-06T11:37:16;5.93;;;5.00;;
12367;SDS011;6248;49.812;6.620;2024-01-06T11:39:44;7.77;;;6.97;;
12367;SDS011;6248;49.812;6.620;2024-01-06T11:42:11;6.50;;;5.90;;
12367;SDS011;6248;49.812;6.620;2024-01-06T11:44:38;6.53;;;5.93;;
12367;SDS011;6248;49.812;6.620;2024-01-06T11:47:06;5.87;;;5.30;;
12367;SDS011;6248;49.812;6.620;2024-01-06T11:49:34;6.43;;;5.83;;
12367;SDS011;6248;49.812;6.620;2024-01-06T11:52:02;6.23;;;5.70;;
12367;SDS011;6248;49.812;6.620;2024-01-06T11:54:29;7.37;;;6.37;;
12367;SDS011;6248;49.812;6.620;2024-01-06T11:56:57;7.03;;;6.33;;
12367;SDS011;6248;49.812;6.620;2024-01-06T11:59:24;6.90;;;6.30;;
12367;SDS011;6248;49.812;6.620;2024-01-06T12:01:51;7.07;;;6.40;;
12367;SDS011;6248;49.812;6.620;2024-01-06T12:04:18;6.70;;;6.10;;
12367;SDS011;6248;49.812;6.620;2024-01-06T12:06:48;6.90;;;6.30;;
12367;SDS011;6248;49.812;6.620;2024-01-06T12:09:16;6.27;;;5.67;;
12367;SDS011;6248;49.812;6.620;2024-01-06T12:11:45;5.83;;;5.33;;
12367;SDS011;6248;49.812;6.620;2024-01-06T12:14:12;5.97;;;5.37;;
12367;SDS011;6248;49.812;6.620;2024-01-06T12:16:40;5.50;;;5.00;;
12367;SDS011;6248;49.812;6.620;2024-01-06T12:19:08;5.27;;;4.80;;
12367;SDS011;6248;49.812;6.620;2024-01-06T12:21:35;5.50;;;5.00;;
12367;SDS011;6248;49.812;6.620;2024-01-06T12:24:14;5.17;;;4.70;;
12367;SDS011;6248;49.812;6.620;2024-01-06T12:26:44;6.03;;;5.43;;
12367;SDS011;6248;49.812;6.620;2024-01-06T12:29:11;5.07;;;4.67;;
12367;SDS011;6248;49.812;6.620;2024-01-06T12:31:38;5.80;;;5.30;;
12367;SDS011;6248;49.812;6.620;2024-01-06T12:34:06;5.33;;;4.83;;
12367;SDS011;6248;49.812;6.620;2024-01-06T12:36:33;4.30;;;4.00;;
12367;SDS011;6248;49.812;6.620;2024-01-06T12:39:00;4.80;;;4.40;;
12367;SDS011;6248;49.812;6.620;2024-01-06T12:41:29;5.27;;;4.87;;
12367;SDS011;6248;49.812;6.620;2024-01-06T12:43:58;5.43;;;4.93;;
12367;SDS011;6248;49.812;6.620;2024-01-06T12:46:25;5.33;;;4.83;;
12367;SDS011;6248;49.812;6.620;2024-01-06T12:48:52;5.83;;;5.30;;
12367;SDS011;6248;49.812;6.620;2024-01-06T12:51:20;7.07;;;6.10;;
12367;SDS011;6248;49.812;6.620;2024-01-06T12:53:47;6.27;;;5.67;;
12367;SDS011;6248;49.812;6.620;2024-01-06T12:56:14;5.73;;;5.23;;
12367;SDS011;6248;49.812;6.620;2024-01-06T12:58:42;5.83;;;5.33;;
12367;SDS011;6248;49.812;6.620;2024-01-06T13:01:09;5.50;;;5.00;;
12367;SDS011;6248;49.812;6.620;2024-01-06T13:03:37;5.60;;;5.10;;
12367;SDS011;6248;49.812;6.620;2024-01-06T13:06:04;5.17;;;4.77;;
12367;SDS011;6248;49.812;6.620;2024-01-06T13:08:31;5.33;;;4.90;;
12367;SDS011;6248;49.812;6.620;2024-01-06T13:10:58;5.27;;;4.83;;
12367;SDS011;6248;49.812;6.620;2024-01-06T13:13:25;4.87;;;4.43;;
12367;SDS011;6248;49.812;6.620;2024-01-06T13:15:54;5.50;;;5.00;;
12367;SDS011;6248;49.812;6.620;2024-01-06T13:18:21;5.13;;;4.73;;
12367;SDS011;6248;49.812;6.620;2024-01-06T13:20:48;6.00;;;5.40;;
12367;SDS011;6248;49.812;6.620;2024-01-06T13:23:15;5.70;;;5.20;;
12367;SDS011;6248;49.812;6.620;2024-01-06T13:25:42;5.83;;;5.30;;
12367;SDS011;6248;49.812;6.620;2024-01-06T13:28:10;5.20;;;4.80;;
12367;SDS011;6248;49.812;6.620;2024-01-06T13:30:37;6.97;;;6.30;;
12367;SDS011;6248;49.812;6.620;2024-01-06T13:33:06;8.80;;;7.17;;
12367;SDS011;6248;49.812;6.620;2024-01-06T13:35:34;12.20;;;8.70;;
12367;SDS011;6248;49.812;6.620;2024-01-06T13:38:01;8.80;;;6.83;;
12367;SDS011;6248;49.812;6.620;2024-01-06T13:40:29;8.37;;;7.07;;
12367;SDS011;6248;49.812;6.620;2024-01-06T13:42:57;5.47;;;4.97;;
12367;SDS011;6248;49.812;6.620;2024-01-06T13:45:24;6.20;;;5.60;;
12367;SDS011;6248;49.812;6.620;2024-01-06T13:47:51;6.00;;;5.50;;
12367;SDS011;6248;49.812;6.620;2024-01-06T13:50:20;7.03;;;6.33;;
12367;SDS011;6248;49.812;6.620;2024-01-06T13:52:47;7.60;;;6.53;;
12367;SDS011;6248;49.812;6.620;2024-01-06T13:55:14;4.97;;;4.47;;
12367;SDS011;6248;49.812;6.620;2024-01-06T13:57:41;5.07;;;4.67;;
12367;SDS011;6248;49.812;6.620;2024-01-06T14:00:09;5.23;;;4.77;;
12367;SDS011;6248;49.812;6.620;2024-01-06T14:02:38;7.87;;;6.23;;
12367;SDS011;6248;49.812;6.620;2024-01-06T14:05:06;5.60;;;4.87;;
12367;SDS011;6248;49.812;6.620;2024-01-06T14:07:34;5.33;;;4.83;;
12367;SDS011;6248;49.812;6.620;2024-01-06T14:10:03;5.60;;;4.67;;
12367;SDS011;6248;49.812;6.620;2024-01-06T14:12:31;4.70;;;4.20;;
12367;SDS011;6248;49.812;6.620;2024-01-06T14:14:58;8.60;;;7.13;;
12367;SDS011;6248;49.812;6.620;2024-01-06T14:17:26;7.80;;;7.00;;
12367;SDS011;6248;49.812;6.620;2024-01-06T14:19:53;5.80;;;5.20;;
12367;SDS011;6248;49.812;6.620;2024-01-06T14:22:20;5.23;;;4.73;;
12367;SDS011;6248;49.812;6.620;2024-01-06T14:24:49;5.20;;;4.70;;
12367;SDS011;6248;49.812;6.620;2024-01-06T14:27:16;4.20;;;3.80;;
12367;SDS011;6248;49.812;6.620;2024-01-06T14:29:43;5.47;;;4.40;;
12367;SDS011;6248;49.812;6.620;2024-01-06T14:32:11;4.60;;;4.20;;
12367;SDS011;6248;49.812;6.620;2024-01-06T14:34:39;4.50;;;3.77;;
12367;SDS011;6248;49.812;6.620;2024-01-06T14:37:06;4.40;;;4.00;;
12367;SDS011;6248;49.812;6.620;2024-01-06T14:39:33;4.63;;;4.10;;
12367;SDS011;6248;49.812;6.620;2024-01-06T14:42:03;4.03;;;3.67;;
12367;SDS011;6248;49.812;6.620;2024-01-06T14:44:30;4.07;;;3.73;;
12367;SDS011;6248;49.812;6.620;2024-01-06T14:46:57;3.57;;;3.20;;
12367;SDS011;6248;49.812;6.620;2024-01-06T14:49:24;3.90;;;3.60;;
12367;SDS011;6248;49.812;6.620;2024-01-06T14:51:51;3.80;;;3.50;;
12367;SDS011;6248;49.812;6.620;2024-01-06T14:54:18;3.90;;;3.47;;
12367;SDS011;6248;49.812;6.620;2024-01-06T14:56:45;3.80;;;3.40;;
12367;SDS011;6248;49.812;6.620;2024-01-06T14:59:14;3.80;;;3.40;;
12367;SDS011;6248;49.812;6.620;2024-01-06T15:01:42;3.73;;;3.20;;
12367;SDS011;6248;49.812;6.620;2024-01-06T15:04:10;5.10;;;3.40;;